首页
METAR-TAF:

METAR-TAF

机场 :

安東尼奧·汪帕特國際機場

阿加尼亚, 關島, 美国

纬度: 13-29N, 经度: 144-48E, 海拔: 91米

当前天气观测

该预报发布于20分钟前的08:12 UTC
风速3节,风向西转西南
温度 27°C
湿度 84%
气压 1012 hPa
能見度: 16.1公里
少量云层高于1500英尺
多云层高于2100英尺
多云层高于2900英尺
雷暴

METAR: PGUM 120812Z 24003KT 10SM TS FEW015 BKN021 BKN029 27/24 A2989 RMK AO2 TSB06 T02670239

时间: 18:32 (08:32 UTC)

预报

该预报发布于2小时和50分钟前的05:42 UTC
预报有效从12日的 06点(UTC)到 13日的 12点(UTC)
风速10节,风向东南
能見度: 10公里
散云层高于2000英尺
散云层高于4000英尺
多云层高于10000英尺
附近有阵雨
短暂存在
从 12日的 07点(UTC)到 12日的 11点(UTC)
能見度: 4.8公里
多云层高于1500英尺
阴天层高于4000英尺
大阵雨
从 12日的 1100点(UTC)
风速11节,风向
能見度: 10公里
散云层高于1500英尺
多云层高于5000英尺
阴天层高于10000英尺
附近有阵雨
短暂存在
从 12日的 11点(UTC)到 12日的 15点(UTC)
能見度: 3.2公里
散云层高于1000英尺
阴天层高于1500英尺
大阵雨
从 13日的 0100点(UTC)
风速6节,风向多变
能見度: 10公里
散云层高于1800英尺, 积雨云.
散云层高于5000英尺
多云层高于12000英尺
附近有雷暴
短暂存在
从 13日的 02点(UTC)到 13日的 06点(UTC)
风速15节,风向多变
能見度: 3.2公里
多云层高于1500英尺, 积雨云.
阴天层高于2500英尺
雷暴, 大雨
从 13日的 0800点(UTC)
风速5节,风向多变
能見度: 10公里
散云层高于2000英尺
散云层高于5000英尺
多云层高于10000英尺
附近有阵雨

TAF: PGUM 120542Z 1206/1312 13010KT P6SM VCSH SCT020 SCT040 BKN100 TEMPO 1207/1211 3SM +SHRA BKN015 OVC040 FM121100 17011KT P6SM VCSH SCT015 BKN050 OVC100 TEMPO 1211/1215 2SM +SHRA SCT010 OVC015 FM130100 VRB06KT P6SM VCTS SCT018CB SCT050 BKN120 TEMPO 1302/1306 VRB15KT 2SM +TSRA BKN015CB OVC025 FM130800 VRB05KT P6SM VCSH SCT020 SCT050 BKN100

超过4000个机场的气象观测和天气预报(METAR&TAF报告)。

可查询的气象台以黄色和红色小点在地图上表示。

将鼠标移到小点上方,可查看气象台名称。

然后点击查看天气观测和预报。

如需切换地图:点击带黑十字的绿色按钮放大地图;点击带横线的绿色按钮缩小地图;或者点击绿色箭头查看邻近地区的地图。


METAR-TAF: